Time;durP1;ratioP1;P1;durP2;ratioP2;P2;SDS_P1;SDS_P2;PMS_P1;PMS_P2;Temp;Humidity;BMP_temperature;BMP_pressure;BME280_temperature;BME280_humidity;BME280_pressure;Samples;Min_cycle;Max_cycle;Signal;HPM_P1;HPM_P2
2021/10/12 00:00:59;;;;;;;15.30;5.80;;;11.30;99.90;;;;;;5031976;28;20168;-70
2021/10/12 00:03:24;;;;;;;9.93;5.90;;;11.30;99.90;;;;;;5031681;28;20195;-70
2021/10/12 00:05:50;;;;;;;13.17;6.70;;;11.30;99.90;;;;;;5025653;28;20646;-72
2021/10/12 00:08:15;;;;;;;12.00;6.50;;;11.30;99.90;;;;;;5012096;28;20158;-71
2021/10/12 00:10:41;;;;;;;10.23;7.27;;;11.30;99.90;;;;;;5012110;28;20216;-70
2021/10/12 00:13:06;;;;;;;13.80;7.53;;;11.30;99.90;;;;;;5012134;28;20168;-70
2021/10/12 00:15:32;;;;;;;13.93;7.43;;;11.30;99.90;;;;;;5011999;28;20239;-70
2021/10/12 00:17:58;;;;;;;11.37;6.27;;;11.30;99.90;;;;;;5027064;28;20191;-71
2021/10/12 00:20:23;;;;;;;11.30;6.40;;;11.30;99.90;;;;;;5031564;28;20169;-70
2021/10/12 00:22:49;;;;;;;12.13;6.80;;;11.30;99.90;;;;;;5025696;28;20197;-69
2021/10/12 00:25:14;;;;;;;11.07;7.23;;;11.30;99.90;;;;;;5015678;28;20523;-70
2021/10/12 00:27:40;;;;;;;12.03;8.30;;;11.30;99.90;;;;;;5020065;28;20648;-70
2021/10/12 00:30:06;;;;;;;10.27;7.47;;;11.30;99.90;;;;;;5035575;28;20183;-70
2021/10/12 00:32:33;;;;;;;13.60;9.10;;;11.30;99.90;;;;;;5035219;28;20163;-69
2021/10/12 00:34:59;;;;;;;14.67;8.90;;;11.20;99.90;;;;;;5035706;28;20976;-70
2021/10/12 00:37:24;;;;;;;16.50;9.00;;;11.20;99.90;;;;;;5035382;28;20501;-70
2021/10/12 00:39:50;;;;;;;19.53;11.57;;;11.20;99.90;;;;;;5029027;28;20457;-72
2021/10/12 00:42:16;;;;;;;18.00;10.90;;;11.20;99.90;;;;;;5015560;28;20683;-70
2021/10/12 00:44:41;;;;;;;13.63;11.50;;;11.20;99.90;;;;;;5015614;28;20165;-70
2021/10/12 00:47:07;;;;;;;15.30;10.73;;;11.20;99.90;;;;;;5015323;28;20196;-70
2021/10/12 00:49:33;;;;;;;18.27;9.73;;;11.10;99.90;;;;;;5015771;28;20169;-70
2021/10/12 00:51:58;;;;;;;15.23;10.20;;;11.10;99.90;;;;;;5015646;28;20223;-70
2021/10/12 00:54:24;;;;;;;18.10;9.80;;;11.10;99.90;;;;;;5026263;28;20542;-71
2021/10/12 00:56:50;;;;;;;15.83;8.73;;;11.10;99.90;;;;;;5034290;28;20276;-71
2021/10/12 00:59:15;;;;;;;13.37;8.77;;;11.10;99.90;;;;;;5034941;28;20536;-70
2021/10/12 01:01:41;;;;;;;12.67;8.90;;;11.10;99.90;;;;;;5034831;28;20196;-71
2021/10/12 01:04:09;;;;;;;11.80;9.17;;;11.10;99.90;;;;;;5034495;28;20191;-71
2021/10/12 01:06:34;;;;;;;15.67;9.53;;;11.10;99.90;;;;;;5035074;28;20404;-71
2021/10/12 01:09:00;;;;;;;16.53;11.20;;;11.00;99.90;;;;;;5034718;28;20919;-71
2021/10/12 01:11:26;;;;;;;13.40;10.00;;;11.00;99.90;;;;;;5034876;28;20547;-70
2021/10/12 01:13:52;;;;;;;12.63;9.30;;;11.00;99.90;;;;;;5028270;28;20186;-71
2021/10/12 01:16:18;;;;;;;14.23;9.47;;;11.00;99.90;;;;;;5016807;28;20397;-71
2021/10/12 01:19:05;;;;;;;14.43;10.40;;;11.00;99.90;;;;;;5034607;28;20422;-71
2021/10/12 01:21:38;;;;;;;20.40;10.13;;;11.00;99.90;;;;;;5033520;28;20252;-70
2021/10/12 01:24:04;;;;;;;17.90;9.83;;;11.00;99.90;;;;;;5034680;28;20399;-71
2021/10/12 01:26:30;;;;;;;18.80;10.70;;;11.00;99.90;;;;;;5025969;28;20427;-71
2021/10/12 01:28:55;;;;;;;18.17;11.50;;;11.10;99.90;;;;;;5031603;28;20422;-70
2021/10/12 01:31:24;;;;;;;12.50;9.80;;;11.10;99.90;;;;;;5023143;28;20204;-71
2021/10/12 01:33:50;;;;;;;20.83;11.53;;;11.10;99.90;;;;;;5019579;28;20220;-71
2021/10/12 01:36:15;;;;;;;16.00;11.80;;;11.00;99.90;;;;;;5025566;28;20458;-70
2021/10/12 01:38:42;;;;;;;16.60;12.57;;;11.10;99.90;;;;;;5014581;28;20177;-70
2021/10/12 01:41:07;;;;;;;17.30;13.13;;;11.00;99.90;;;;;;5014477;28;20157;-71
2021/10/12 01:43:33;;;;;;;16.20;12.10;;;11.10;99.90;;;;;;5014437;28;20975;-71
2021/10/12 01:46:00;;;;;;;17.50;12.83;;;11.00;99.90;;;;;;5030021;28;20164;-70
2021/10/12 01:48:25;;;;;;;18.43;12.87;;;11.00;99.90;;;;;;5033425;28;20212;-71
2021/10/12 01:50:51;;;;;;;18.10;12.80;;;11.00;99.90;;;;;;5034079;28;20492;-71
2021/10/12 01:53:17;;;;;;;22.70;14.00;;;11.00;99.90;;;;;;5033941;28;20165;-71
2021/10/12 01:55:42;;;;;;;16.77;12.03;;;11.00;99.90;;;;;;5034103;28;20165;-72
2021/10/12 01:58:08;;;;;;;23.23;16.53;;;11.00;99.90;;;;;;5033094;28;20207;-71
2021/10/12 02:00:33;;;;;;;22.83;19.03;;;11.10;99.90;;;;;;5034083;28;20171;-71
2021/10/12 02:02:59;;;;;;;18.13;16.23;;;11.10;99.90;;;;;;5033426;28;20211;-71
2021/10/12 02:05:25;;;;;;;25.67;17.53;;;11.10;99.90;;;;;;5022998;28;20259;-71
2021/10/12 02:07:50;;;;;;;20.70;16.73;;;11.10;99.90;;;;;;5013872;28;20168;-70
2021/10/12 02:10:16;;;;;;;19.63;15.63;;;11.10;99.90;;;;;;5013815;28;20543;-70
2021/10/12 02:12:41;;;;;;;22.27;15.97;;;11.00;99.90;;;;;;5013980;28;20231;-70
2021/10/12 02:15:07;;;;;;;20.23;16.40;;;11.00;99.90;;;;;;5014070;28;20172;-71
2021/10/12 02:17:33;;;;;;;18.70;15.00;;;11.00;99.90;;;;;;5013857;28;20617;-71
2021/10/12 02:19:59;;;;;;;20.20;17.03;;;11.00;99.90;;;;;;5014240;28;20395;-70
2021/10/12 02:22:24;;;;;;;20.97;15.73;;;11.00;99.90;;;;;;5014618;28;20208;-73
2021/10/12 02:24:50;;;;;;;19.63;15.90;;;11.00;99.90;;;;;;5013909;28;20160;-73
2021/10/12 02:27:16;;;;;;;20.87;17.17;;;11.00;99.90;;;;;;5019009;28;20184;-73
2021/10/12 02:29:42;;;;;;;18.47;16.50;;;11.00;99.90;;;;;;5033605;28;20157;-73
2021/10/12 02:32:07;;;;;;;19.50;15.30;;;11.00;99.90;;;;;;5033271;28;20160;-74
2021/10/12 02:34:33;;;;;;;18.13;16.20;;;11.10;99.90;;;;;;5033188;28;20657;-73
2021/10/12 02:36:58;;;;;;;21.97;16.83;;;11.10;99.90;;;;;;5033544;28;20551;-73
2021/10/12 02:39:24;;;;;;;17.97;15.27;;;11.10;99.90;;;;;;5022037;28;20197;-73
2021/10/12 02:41:49;;;;;;;23.53;16.73;;;11.10;99.90;;;;;;5013882;28;20201;-73
2021/10/12 02:44:15;;;;;;;16.27;14.57;;;11.10;99.90;;;;;;5013440;28;20190;-73
2021/10/12 02:46:41;;;;;;;22.43;16.87;;;11.10;99.90;;;;;;5013038;28;20158;-73
2021/10/12 02:49:06;;;;;;;15.73;14.13;;;11.00;99.90;;;;;;5013173;28;20178;-73
2021/10/12 02:51:32;;;;;;;15.37;13.77;;;11.00;99.90;;;;;;5013183;28;20162;-73
2021/10/12 02:53:57;;;;;;;15.47;13.73;;;11.00;99.90;;;;;;5020635;28;20165;-73
2021/10/12 02:56:23;;;;;;;15.83;14.00;;;11.00;99.90;;;;;;5031987;28;20406;-73
2021/10/12 02:58:48;;;;;;;16.73;13.93;;;11.00;99.90;;;;;;5015480;28;20186;-73
2021/10/12 03:01:14;;;;;;;15.60;13.57;;;11.00;99.90;;;;;;5028115;28;20625;-74
2021/10/12 03:03:39;;;;;;;15.60;14.00;;;11.00;99.90;;;;;;5013070;28;20262;-74
2021/10/12 03:06:05;;;;;;;16.40;12.80;;;11.00;99.90;;;;;;5013687;28;20165;-74
2021/10/12 03:08:31;;;;;;;15.90;11.63;;;11.00;99.90;;;;;;5012916;28;20241;-74
2021/10/12 03:10:56;;;;;;;14.77;11.70;;;11.00;99.90;;;;;;5012847;28;20164;-74
2021/10/12 03:13:22;;;;;;;13.63;11.80;;;11.00;99.90;;;;;;5023181;28;20209;-73
2021/10/12 03:15:47;;;;;;;12.57;10.80;;;11.00;99.90;;;;;;5032417;28;20164;-74
2021/10/12 03:18:13;;;;;;;15.03;10.70;;;11.00;99.90;;;;;;5032517;28;20173;-74
2021/10/12 03:20:39;;;;;;;11.50;10.40;;;11.00;99.90;;;;;;5032585;28;20202;-73
2021/10/12 03:23:05;;;;;;;11.97;10.10;;;10.90;99.90;;;;;;5032352;28;20474;-73
2021/10/12 03:25:30;;;;;;;12.17;10.40;;;10.90;99.90;;;;;;5032109;28;20531;-74
2021/10/12 03:27:56;;;;;;;12.97;11.57;;;10.90;99.90;;;;;;5023122;28;20262;-74
2021/10/12 03:30:21;;;;;;;10.83;9.73;;;10.90;99.90;;;;;;5021620;28;20182;-74
2021/10/12 03:32:47;;;;;;;15.13;11.37;;;10.90;99.90;;;;;;5012726;28;20548;-74
2021/10/12 03:35:15;;;;;;;14.57;11.40;;;10.90;99.90;;;;;;5029358;28;20173;-74
2021/10/12 03:37:41;;;;;;;16.63;12.40;;;10.90;99.90;;;;;;5032385;28;20620;-74
2021/10/12 03:40:07;;;;;;;14.80;12.80;;;10.90;99.90;;;;;;5031987;28;20396;-74
2021/10/12 03:42:32;;;;;;;16.10;12.47;;;10.90;99.90;;;;;;5032218;28;20206;-74
2021/10/12 03:44:58;;;;;;;14.93;12.80;;;10.90;99.90;;;;;;5032119;28;20399;-74
2021/10/12 03:47:24;;;;;;;20.13;17.03;;;10.90;99.90;;;;;;5031561;28;20604;-74
2021/10/12 03:49:49;;;;;;;20.13;16.43;;;10.90;99.90;;;;;;5031969;28;20214;-74
2021/10/12 03:52:15;;;;;;;25.00;17.93;;;10.90;99.90;;;;;;5032099;28;20171;-74
2021/10/12 03:54:40;;;;;;;24.20;17.30;;;10.90;99.90;;;;;;5031844;28;20180;-74
2021/10/12 03:57:06;;;;;;;21.10;18.90;;;10.80;99.90;;;;;;5024737;28;20181;-74
2021/10/12 03:59:31;;;;;;;22.73;17.97;;;10.90;99.90;;;;;;5012461;28;20183;-74
2021/10/12 04:01:57;;;;;;;23.80;18.90;;;10.90;99.90;;;;;;5011993;28;20213;-74
2021/10/12 04:04:22;;;;;;;26.87;20.50;;;10.90;99.90;;;;;;5012818;28;20230;-74
2021/10/12 04:06:48;;;;;;;24.20;18.63;;;10.90;99.90;;;;;;5012189;28;20165;-74
2021/10/12 04:09:13;;;;;;;20.73;18.53;;;10.90;99.90;;;;;;5012158;28;20180;-74
2021/10/12 04:11:39;;;;;;;24.73;19.33;;;10.90;99.90;;;;;;5012078;28;20610;-74
2021/10/12 04:14:04;;;;;;;20.33;15.40;;;10.90;99.90;;;;;;5012094;28;20164;-74
2021/10/12 04:16:31;;;;;;;16.60;14.83;;;10.90;99.90;;;;;;5015391;28;20158;-74
2021/10/12 04:18:56;;;;;;;20.63;15.53;;;10.90;99.90;;;;;;5031718;28;20153;-74
2021/10/12 04:21:22;;;;;;;19.10;15.70;;;10.90;99.90;;;;;;5021113;28;20411;-74
2021/10/12 04:23:47;;;;;;;22.63;15.67;;;10.90;99.90;;;;;;5012123;28;20197;-74
2021/10/12 04:26:15;;;;;;;28.47;15.80;;;10.90;99.90;;;;;;5012048;28;20173;-73
2021/10/12 04:28:41;;;;;;;15.23;13.73;;;10.90;99.90;;;;;;5030745;28;20215;-74
2021/10/12 04:31:06;;;;;;;17.13;12.63;;;10.90;99.90;;;;;;5031726;28;20449;-74
2021/10/12 04:33:34;;;;;;;14.63;12.53;;;10.90;99.90;;;;;;5031539;28;20165;-74
2021/10/12 04:35:59;;;;;;;15.73;11.60;;;10.90;99.90;;;;;;5031725;28;20527;-74
2021/10/12 04:38:25;;;;;;;17.00;13.60;;;10.90;99.90;;;;;;5020360;28;20422;-74
2021/10/12 04:40:50;;;;;;;22.23;13.13;;;10.90;99.90;;;;;;5011704;28;20196;-74
2021/10/12 04:43:16;;;;;;;21.03;12.73;;;10.90;99.90;;;;;;5011525;28;20193;-74
2021/10/12 04:45:42;;;;;;;14.37;12.77;;;10.90;99.90;;;;;;5011579;28;20534;-74
2021/10/12 04:48:08;;;;;;;16.33;11.50;;;10.90;99.90;;;;;;5011811;28;20408;-74
2021/10/12 04:50:34;;;;;;;14.70;12.17;;;10.90;99.90;;;;;;5011806;28;20158;-74
2021/10/12 04:53:00;;;;;;;15.57;12.53;;;10.90;99.90;;;;;;5012024;28;20320;-74
2021/10/12 04:55:25;;;;;;;17.30;12.63;;;10.90;99.90;;;;;;5030127;28;20184;-73
2021/10/12 04:57:51;;;;;;;17.63;13.30;;;10.90;99.90;;;;;;5016092;28;20486;-74
2021/10/12 05:00:17;;;;;;;21.57;15.33;;;10.90;99.90;;;;;;5011711;28;20553;-74
2021/10/12 05:02:42;;;;;;;21.10;16.03;;;10.90;99.90;;;;;;5011725;28;20262;-74
2021/10/12 05:05:08;;;;;;;21.80;16.20;;;11.00;99.90;;;;;;5011843;28;20161;-74
2021/10/12 05:07:34;;;;;;;21.90;17.70;;;11.00;99.90;;;;;;5011876;28;20186;-74
2021/10/12 05:09:59;;;;;;;20.67;17.90;;;11.00;99.90;;;;;;5013123;28;20157;-73
2021/10/12 05:12:25;;;;;;;22.07;17.53;;;11.00;99.90;;;;;;5015720;28;20180;-74
2021/10/12 05:14:50;;;;;;;23.53;18.97;;;11.00;99.90;;;;;;5015502;28;20256;-74
2021/10/12 05:20:02;;;;;;;29.23;23.47;;;11.00;99.90;;;;;;5034520;28;20503;-74
2021/10/12 05:22:28;;;;;;;23.87;21.30;;;11.00;99.90;;;;;;5034709;28;20943;-73
2021/10/12 05:24:54;;;;;;;24.63;21.50;;;11.00;99.90;;;;;;5034711;28;20438;-74
2021/10/12 05:27:19;;;;;;;27.47;22.73;;;11.00;99.90;;;;;;5029176;28;20969;-74
2021/10/12 05:29:45;;;;;;;26.87;23.87;;;11.00;99.90;;;;;;5021120;28;20657;-74
2021/10/12 05:32:11;;;;;;;23.47;20.53;;;11.00;99.90;;;;;;5017551;28;20180;-74
2021/10/12 05:34:37;;;;;;;25.07;22.47;;;11.00;99.90;;;;;;5030585;28;20191;-74
2021/10/12 05:37:02;;;;;;;22.40;20.10;;;10.90;99.90;;;;;;5021170;28;20180;-74
2021/10/12 05:39:28;;;;;;;24.37;22.00;;;11.00;99.90;;;;;;5022090;28;20443;-74
2021/10/12 05:41:55;;;;;;;28.43;21.57;;;10.90;99.90;;;;;;5027094;28;20578;-74
2021/10/12 05:44:21;;;;;;;23.43;20.93;;;11.00;99.90;;;;;;5030716;28;20453;-74
2021/10/12 05:46:46;;;;;;;22.90;20.47;;;10.90;99.90;;;;;;5022828;28;20527;-74
2021/10/12 05:49:12;;;;;;;24.53;22.00;;;10.90;99.90;;;;;;5023301;28;20649;-74
2021/10/12 05:51:38;;;;;;;26.27;22.00;;;10.90;99.90;;;;;;5021300;28;20168;-74
2021/10/12 05:54:05;;;;;;;24.13;21.60;;;10.90;99.90;;;;;;5027579;28;20177;-73
2021/10/12 05:56:40;;;;;;;26.10;23.33;;;10.90;99.90;;;;;;5024557;28;20294;-73
2021/10/12 05:59:06;;;;;;;25.57;22.87;;;10.90;99.90;;;;;;5020888;28;20544;-73
2021/10/12 06:01:35;;;;;;;25.23;22.07;;;10.90;99.90;;;;;;5025896;28;20515;-73
2021/10/12 06:04:00;;;;;;;29.07;22.70;;;11.00;99.90;;;;;;5021412;28;20202;-73
2021/10/12 06:06:26;;;;;;;23.70;20.73;;;11.00;99.90;;;;;;5028513;28;20944;-73
2021/10/12 06:08:51;;;;;;;27.67;24.00;;;11.00;99.90;;;;;;5019527;28;20667;-73
2021/10/12 06:11:17;;;;;;;27.97;21.90;;;11.00;99.90;;;;;;5024973;28;20197;-73
2021/10/12 06:13:44;;;;;;;22.07;19.77;;;11.00;99.90;;;;;;5024956;28;20195;-73
2021/10/12 06:16:09;;;;;;;23.67;21.30;;;11.00;99.90;;;;;;5029372;28;20180;-73
2021/10/12 06:18:35;;;;;;;24.43;20.33;;;11.00;99.90;;;;;;5033070;28;20754;-74
2021/10/12 06:21:02;;;;;;;22.23;18.57;;;11.00;99.90;;;;;;5024160;28;20665;-73
2021/10/12 06:23:28;;;;;;;20.00;16.77;;;11.00;99.90;;;;;;5012665;28;20212;-73
2021/10/12 06:25:54;;;;;;;21.30;17.93;;;11.00;99.90;;;;;;5019586;28;20441;-74
2021/10/12 06:28:21;;;;;;;21.37;16.73;;;11.00;99.90;;;;;;5020149;28;20192;-73
2021/10/12 06:30:47;;;;;;;20.30;18.10;;;11.00;99.90;;;;;;5027797;28;20545;-73
2021/10/12 06:33:13;;;;;;;16.63;14.97;;;11.00;99.90;;;;;;5026272;28;20933;-73
2021/10/12 06:35:39;;;;;;;17.23;14.60;;;11.00;99.90;;;;;;5030495;28;20451;-73
2021/10/12 06:38:05;;;;;;;16.87;15.30;;;11.00;99.90;;;;;;5020422;28;20526;-73
2021/10/12 06:40:32;;;;;;;16.63;14.83;;;11.00;99.90;;;;;;5031901;28;20495;-74
2021/10/12 06:42:58;;;;;;;15.10;13.60;;;11.00;99.90;;;;;;5019290;28;20486;-73
2021/10/12 06:45:24;;;;;;;15.13;13.73;;;11.00;99.90;;;;;;5021667;28;20467;-73
2021/10/12 06:47:50;;;;;;;16.73;14.10;;;11.10;99.90;;;;;;5027824;28;21054;-73
2021/10/12 06:50:17;;;;;;;14.10;12.27;;;11.10;99.90;;;;;;5028796;28;20451;-74
2021/10/12 06:52:43;;;;;;;13.20;11.80;;;11.10;99.90;;;;;;5022778;28;20420;-73
2021/10/12 06:55:10;;;;;;;16.50;12.80;;;11.10;99.90;;;;;;5015224;28;20447;-74
2021/10/12 06:57:37;;;;;;;16.70;12.10;;;11.10;99.90;;;;;;5025019;28;20193;-73
2021/10/12 07:00:05;;;;;;;13.83;12.03;;;11.10;99.90;;;;;;5031794;28;20869;-73
2021/10/12 07:02:31;;;;;;;14.33;10.80;;;11.20;99.90;;;;;;5024389;28;20467;-74
2021/10/12 07:04:57;;;;;;;15.20;11.63;;;11.20;99.90;;;;;;5028011;28;20447;-73
2021/10/12 07:07:23;;;;;;;12.87;11.57;;;11.20;99.90;;;;;;5029263;28;20184;-73
2021/10/12 07:09:48;;;;;;;17.13;12.60;;;11.20;99.90;;;;;;5026662;28;20411;-73
2021/10/12 07:12:14;;;;;;;17.93;12.10;;;11.30;99.90;;;;;;5029155;28;20243;-73
2021/10/12 07:14:40;;;;;;;15.70;12.33;;;11.30;99.90;;;;;;5021770;28;20184;-73
2021/10/12 07:17:05;;;;;;;16.27;12.40;;;11.30;99.90;;;;;;5026958;28;20606;-74
2021/10/12 07:19:31;;;;;;;13.83;11.60;;;11.40;99.90;;;;;;5029513;28;20180;-74
2021/10/12 07:21:56;;;;;;;15.47;12.33;;;11.40;99.90;;;;;;5027919;28;20201;-74
2021/10/12 07:24:23;;;;;;;13.33;12.07;;;11.30;99.90;;;;;;5025216;28;20589;-74
2021/10/12 07:26:49;;;;;;;15.00;12.00;;;11.40;99.90;;;;;;5015259;28;20189;-74
2021/10/12 07:29:15;;;;;;;15.90;10.50;;;11.40;99.90;;;;;;5018194;28;20944;-74
2021/10/12 07:31:42;;;;;;;11.23;10.10;;;11.40;99.90;;;;;;5024676;28;20441;-74
2021/10/12 07:34:08;;;;;;;13.17;9.77;;;11.40;99.90;;;;;;5030142;28;20419;-74
2021/10/12 07:36:34;;;;;;;15.17;10.97;;;11.50;99.90;;;;;;5029744;28;20458;-74
2021/10/12 07:39:00;;;;;;;13.37;10.70;;;11.50;99.90;;;;;;5029103;28;20459;-74
2021/10/12 07:41:26;;;;;;;16.80;10.47;;;11.50;99.90;;;;;;5026483;28;20499;-74
2021/10/12 07:43:51;;;;;;;12.10;10.60;;;11.50;99.90;;;;;;5029044;28;20227;-74
2021/10/12 07:46:17;;;;;;;12.70;10.63;;;11.50;99.90;;;;;;5024261;28;20419;-74
2021/10/12 07:48:42;;;;;;;15.27;11.30;;;11.40;99.90;;;;;;5024888;28;20181;-74
2021/10/12 07:51:08;;;;;;;12.40;11.20;;;11.40;99.90;;;;;;5018920;28;20185;-74
2021/10/12 07:53:36;;;;;;;15.70;10.97;;;11.40;99.90;;;;;;5028549;28;20547;-74
2021/10/12 07:56:07;;;;;;;15.67;12.33;;;11.40;99.90;;;;;;5027870;28;20184;-74
2021/10/12 07:58:33;;;;;;;12.73;11.47;;;11.40;99.90;;;;;;5035587;28;20547;-74
2021/10/12 08:00:58;;;;;;;14.23;11.77;;;11.40;99.90;;;;;;5023990;28;21110;-74
2021/10/12 08:03:24;;;;;;;16.80;12.20;;;11.40;99.90;;;;;;5013620;28;20259;-74
2021/10/12 08:05:49;;;;;;;13.43;12.07;;;11.50;99.90;;;;;;5027961;28;20179;-74
2021/10/12 08:08:15;;;;;;;12.00;10.90;;;11.50;99.90;;;;;;5022233;28;20189;-74
2021/10/12 08:10:41;;;;;;;12.97;11.67;;;11.50;99.90;;;;;;5008389;28;20173;-74
2021/10/12 08:13:11;;;;;;;12.70;10.43;;;11.60;99.90;;;;;;5023587;28;20192;-74
2021/10/12 08:15:39;;;;;;;15.50;12.90;;;11.60;99.90;;;;;;5028727;28;20181;-74
2021/10/12 08:18:05;;;;;;;13.00;11.57;;;11.60;99.90;;;;;;5029201;28;20860;-74
2021/10/12 08:20:30;;;;;;;12.43;11.23;;;11.60;99.90;;;;;;5038368;28;20419;-74
2021/10/12 08:22:57;;;;;;;11.23;10.23;;;11.60;99.90;;;;;;5026867;28;20250;-74
2021/10/12 08:25:22;;;;;;;12.30;10.90;;;11.70;99.90;;;;;;5030186;28;20176;-74
2021/10/12 08:27:48;;;;;;;11.70;10.63;;;11.70;99.90;;;;;;5012482;28;20467;-74
2021/10/12 08:30:14;;;;;;;12.00;10.70;;;11.70;99.90;;;;;;5017302;28;20271;-74
2021/10/12 08:32:40;;;;;;;13.80;12.50;;;11.80;99.90;;;;;;5025574;28;20438;-74
2021/10/12 08:35:08;;;;;;;13.50;12.43;;;11.80;99.90;;;;;;5021928;28;20277;-74
2021/10/12 08:37:36;;;;;;;15.57;14.03;;;11.80;99.90;;;;;;5026338;28;20441;-74
2021/10/12 08:40:04;;;;;;;16.13;13.67;;;11.80;99.90;;;;;;5025127;28;20859;-74
2021/10/12 08:42:33;;;;;;;15.07;13.60;;;11.80;99.90;;;;;;5023310;28;20466;-74
2021/10/12 08:45:02;;;;;;;16.43;14.87;;;11.80;99.90;;;;;;5022483;28;20443;-75
2021/10/12 08:47:30;;;;;;;14.00;12.90;;;11.90;99.90;;;;;;5028761;28;20834;-74
2021/10/12 08:49:57;;;;;;;15.83;14.33;;;11.90;99.90;;;;;;5024511;28;20407;-74
2021/10/12 08:52:22;;;;;;;15.43;13.83;;;11.90;99.90;;;;;;5030296;28;20432;-74
2021/10/12 08:54:49;;;;;;;18.00;14.40;;;11.90;99.90;;;;;;5025481;28;20427;-74
2021/10/12 09:00:11;;;;;;;15.97;14.67;;;11.90;99.90;;;;;;5065102;28;20583;-74
2021/10/12 09:03:26;;;;;;;16.53;14.67;;;11.90;99.90;;;;;;5065198;28;20838;-74
2021/10/12 09:08:35;;;;;;;16.00;14.30;;;11.90;99.90;;;;;;5060084;28;20583;-75
2021/10/12 09:11:01;;;;;;;17.57;15.87;;;11.90;99.90;;;;;;5047742;28;20823;-74
2021/10/12 09:13:27;;;;;;;20.10;16.73;;;11.90;99.90;;;;;;5059051;28;20981;-74
2021/10/12 09:16:10;;;;;;;21.30;14.60;;;12.00;99.90;;;;;;5047110;28;20434;-74
2021/10/12 09:18:53;;;;;;;16.50;14.33;;;12.00;99.90;;;;;;5045761;28;20525;-74
2021/10/12 09:29:27;;;;;;;13.60;12.30;;;12.00;99.90;;;;;;5070009;28;20532;-74
2021/10/12 09:31:55;;;;;;;17.07;12.80;;;12.00;99.90;;;;;;5069145;28;20437;-74
2021/10/12 09:34:23;;;;;;;13.03;11.90;;;12.10;99.90;;;;;;5064926;28;20445;-74
2021/10/12 09:36:51;;;;;;;14.83;11.00;;;12.00;99.90;;;;;;5067310;28;20445;-74
2021/10/12 09:39:27;;;;;;;13.07;11.77;;;12.00;99.90;;;;;;5066177;28;20772;-74
2021/10/12 09:41:57;;;;;;;17.20;14.20;;;12.00;99.90;;;;;;5059415;28;20954;-74
2021/10/12 09:44:23;;;;;;;13.40;12.03;;;12.00;99.90;;;;;;5047024;28;20445;-74
2021/10/12 09:46:53;;;;;;;16.53;13.47;;;12.00;99.90;;;;;;5046417;28;20427;-74
2021/10/12 09:49:20;;;;;;;13.90;12.50;;;12.00;99.90;;;;;;5047619;28;20947;-74
2021/10/12 09:54:46;;;;;;;10.90;10.07;;;12.00;99.90;;;;;;5049902;28;20674;-74
2021/10/12 09:57:13;;;;;;;13.50;10.73;;;12.00;99.90;;;;;;5044960;28;20783;-74
2021/10/12 09:59:38;;;;;;;13.10;11.90;;;12.00;99.90;;;;;;5044549;28;20427;-74
2021/10/12 10:02:04;;;;;;;11.07;9.93;;;12.00;99.90;;;;;;5058151;28;20512;-74
2021/10/12 10:04:30;;;;;;;10.13;9.23;;;12.00;99.90;;;;;;5051256;28;20258;-74
2021/10/12 10:07:05;;;;;;;10.53;9.57;;;12.00;99.90;;;;;;5047509;28;20545;-74
2021/10/12 10:09:34;;;;;;;10.93;9.93;;;12.00;99.90;;;;;;5043943;28;20456;-74
2021/10/12 10:12:00;;;;;;;12.83;11.43;;;12.00;99.90;;;;;;5047794;28;20434;-75
2021/10/12 10:14:27;;;;;;;12.23;11.03;;;12.10;99.90;;;;;;5045529;28;20489;-75
2021/10/12 10:16:57;;;;;;;10.53;9.63;;;12.10;99.90;;;;;;5045658;28;20437;-75
2021/10/12 10:19:26;;;;;;;9.73;8.83;;;12.10;99.90;;;;;;5045973;28;20821;-74
2021/10/12 10:21:52;;;;;;;9.77;8.87;;;12.10;99.90;;;;;;5046450;28;20425;-74
2021/10/12 10:24:56;;;;;;;8.20;7.53;;;12.10;99.90;;;;;;5039665;28;20431;-74
2021/10/12 10:27:39;;;;;;;8.07;7.37;;;12.20;99.90;;;;;;5039110;28;20470;-74
2021/10/12 10:33:03;;;;;;;7.30;6.73;;;12.30;99.90;;;;;;5126304;27;20666;-74
2021/10/12 10:35:36;;;;;;;7.73;6.93;;;12.40;99.90;;;;;;5105703;28;20434;-74
2021/10/12 10:38:43;;;;;;;7.33;6.70;;;12.50;99.90;;;;;;5109916;28;20424;-73
2021/10/12 10:57:20;;;;;;;9.30;8.60;;;12.50;99.90;;;;;;5063973;27;20527;-74
2021/10/12 11:00:07;;;;;;;11.33;10.43;;;12.70;99.90;;;;;;5063254;28;20406;-75
2021/10/12 11:05:35;;;;;;;12.43;11.33;;;12.70;99.90;;;;;;5065068;28;20622;-78
2021/10/12 11:08:20;;;;;;;14.63;13.20;;;12.70;99.90;;;;;;5067608;28;20417;-77
2021/10/12 11:10:49;;;;;;;14.93;13.43;;;12.70;99.90;;;;;;5054102;28;20951;-77
2021/10/12 11:16:17;;;;;;;15.47;14.03;;;12.80;99.90;;;;;;5063527;28;20540;-74
2021/10/12 11:18:45;;;;;;;16.83;15.23;;;12.80;99.90;;;;;;5049523;28;20436;-74
2021/10/12 11:21:13;;;;;;;17.37;15.70;;;12.80;99.90;;;;;;5045669;28;20455;-74
2021/10/12 11:23:41;;;;;;;17.20;15.60;;;12.80;99.90;;;;;;5031358;28;20998;-74
2021/10/12 11:26:24;;;;;;;18.30;16.60;;;12.80;99.90;;;;;;5039630;28;20427;-74
2021/10/12 11:28:52;;;;;;;18.00;16.30;;;12.90;99.90;;;;;;5039192;28;20457;-74
2021/10/12 11:31:21;;;;;;;19.33;16.30;;;12.90;99.90;;;;;;5037690;28;20430;-74
2021/10/12 11:33:49;;;;;;;17.80;16.00;;;12.90;99.90;;;;;;5044245;28;20910;-75
2021/10/12 11:36:20;;;;;;;19.10;17.30;;;12.90;99.90;;;;;;5031595;28;20858;-74
2021/10/12 11:44:14;;;;;;;18.97;17.27;;;13.00;99.90;;;;;;5139303;27;20620;-75
2021/10/12 11:46:44;;;;;;;18.47;16.67;;;13.10;99.90;;;;;;5103161;28;20761;-75
2021/10/12 11:49:11;;;;;;;19.13;17.43;;;13.20;99.90;;;;;;5085055;28;20455;-75
2021/10/12 11:51:39;;;;;;;21.17;17.90;;;13.30;99.90;;;;;;5088888;28;20413;-76
2021/10/12 11:54:05;;;;;;;19.13;17.37;;;13.30;99.90;;;;;;5085724;28;20433;-75
2021/10/12 11:56:33;;;;;;;21.33;17.07;;;13.50;99.90;;;;;;5085046;28;20491;-76
2021/10/12 11:58:59;;;;;;;16.87;15.27;;;13.60;99.90;;;;;;5086409;28;20429;-75
2021/10/12 12:01:29;;;;;;;16.13;14.63;;;13.70;99.90;;;;;;5088326;28;20426;-75
2021/10/12 12:03:56;;;;;;;16.07;14.57;;;13.70;99.90;;;;;;5091774;28;20453;-75
2021/10/12 12:06:25;;;;;;;15.63;14.03;;;13.80;99.90;;;;;;5087975;28;20437;-75
2021/10/12 12:08:53;;;;;;;15.30;13.83;;;13.80;99.90;;;;;;5086429;28;20444;-75
2021/10/12 12:11:23;;;;;;;14.80;13.60;;;13.80;99.90;;;;;;5088194;28;20434;-75
2021/10/12 12:13:50;;;;;;;15.40;13.90;;;13.90;99.90;;;;;;5088858;28;20400;-75
2021/10/12 12:16:18;;;;;;;14.87;13.37;;;13.90;99.90;;;;;;5088176;28;20426;-75
2021/10/12 12:18:44;;;;;;;14.80;13.40;;;13.80;99.90;;;;;;5082345;28;21048;-75
2021/10/12 12:21:10;;;;;;;16.70;13.20;;;13.90;99.90;;;;;;5084536;28;20443;-75
2021/10/12 12:23:47;;;;;;;15.73;14.27;;;13.80;99.90;;;;;;5088526;28;20197;-75
2021/10/12 12:26:20;;;;;;;18.20;15.03;;;13.80;99.90;;;;;;5088174;28;20432;-75
2021/10/12 12:28:46;;;;;;;15.83;14.43;;;13.70;99.90;;;;;;5086242;28;20598;-73
2021/10/12 12:31:28;;;;;;;15.57;14.07;;;13.60;99.90;;;;;;5087403;28;20523;-73
2021/10/12 12:33:56;;;;;;;15.73;14.27;;;13.50;99.90;;;;;;5086631;28;20652;-73
2021/10/12 12:36:32;;;;;;;16.33;13.70;;;13.50;99.90;;;;;;5082044;28;20532;-75
2021/10/12 12:39:07;;;;;;;15.27;13.80;;;13.40;99.90;;;;;;5082499;28;20468;-73
2021/10/12 12:41:42;;;;;;;16.37;14.67;;;13.30;99.90;;;;;;5076624;28;20459;-74
2021/10/12 12:44:08;;;;;;;15.70;12.90;;;13.30;99.90;;;;;;5096702;28;20446;-73
2021/10/12 12:46:35;;;;;;;13.83;12.33;;;13.20;99.90;;;;;;5101399;28;20988;-73
2021/10/12 12:49:11;;;;;;;15.27;13.60;;;13.20;99.90;;;;;;5080349;28;20444;-74
2021/10/12 12:54:46;;;;;;;15.70;14.10;;;13.20;99.90;;;;;;5128417;27;20932;-75
2021/10/12 12:57:15;;;;;;;14.67;13.37;;;13.20;99.90;;;;;;5126833;28;20433;-75
2021/10/12 12:59:42;;;;;;;15.03;13.50;;;13.20;99.90;;;;;;5127434;28;20509;-75
2021/10/12 13:02:22;;;;;;;13.87;12.70;;;13.30;99.90;;;;;;5129533;28;20810;-75
2021/10/12 13:04:49;;;;;;;13.73;12.43;;;13.30;99.90;;;;;;5128735;28;20411;-76
2021/10/12 13:07:17;;;;;;;14.03;12.53;;;13.30;99.90;;;;;;5124595;28;20850;-75
2021/10/12 13:09:45;;;;;;;16.17;14.77;;;13.40;99.90;;;;;;5128300;28;20438;-75
2021/10/12 13:12:14;;;;;;;20.93;16.40;;;13.40;99.90;;;;;;5123062;28;20546;-75
2021/10/12 13:14:40;;;;;;;17.07;14.90;;;13.40;99.90;;;;;;5126670;28;20888;-74
2021/10/12 13:17:05;;;;;;;18.47;16.70;;;13.30;99.90;;;;;;5127685;28;20460;-75
2021/10/12 13:19:31;;;;;;;17.93;15.97;;;13.20;99.90;;;;;;5128523;28;20157;-75
2021/10/12 13:21:56;;;;;;;18.63;16.93;;;13.20;99.90;;;;;;5129018;28;20573;-75